createdAt,value
2018-12-18T00:02:19.824Z,12.10
2018-12-18T00:04:48.234Z,13.88
2018-12-18T00:07:16.376Z,8.25
2018-12-18T00:09:44.595Z,13.25
2018-12-18T00:12:12.793Z,13.32
2018-12-18T00:14:41.033Z,12.80
2018-12-18T00:17:09.318Z,12.75
2018-12-18T00:19:37.590Z,13.80
2018-12-18T00:22:06.119Z,14.63
2018-12-18T00:24:34.453Z,11.78
2018-12-18T00:27:02.783Z,11.43
2018-12-18T00:29:30.999Z,10.80
2018-12-18T00:31:59.237Z,12.53
2018-12-18T00:34:27.491Z,12.58
2018-12-18T00:36:55.688Z,11.20
2018-12-18T00:39:23.967Z,10.45
2018-12-18T00:41:56.382Z,12.13
2018-12-18T00:44:25.202Z,12.68
2018-12-18T00:46:53.647Z,13.80
2018-12-18T00:49:21.815Z,12.45
2018-12-18T00:51:49.961Z,12.85
2018-12-18T00:54:18.227Z,11.15
2018-12-18T00:56:46.415Z,13.62
2018-12-18T00:59:14.676Z,10.68
2018-12-18T01:01:47.204Z,10.10
2018-12-18T01:04:15.641Z,13.85
2018-12-18T01:06:43.925Z,13.15
2018-12-18T01:09:12.195Z,11.03
2018-12-18T01:11:40.445Z,13.70
2018-12-18T01:14:08.595Z,11.70
2018-12-18T01:16:36.832Z,11.60
2018-12-18T01:19:05.142Z,14.28
2018-12-18T01:21:33.351Z,14.40
2018-12-18T01:24:08.228Z,12.95
2018-12-18T01:26:36.463Z,14.85
2018-12-18T01:29:04.753Z,11.60
2018-12-18T01:31:32.903Z,13.25
2018-12-18T01:34:01.055Z,13.55
2018-12-18T01:36:29.186Z,15.32
2018-12-18T01:38:57.384Z,13.50
2018-12-18T01:41:25.594Z,16.37
2018-12-18T01:43:53.886Z,12.65
2018-12-18T01:46:22.170Z,14.60
2018-12-18T01:48:50.365Z,16.48
2018-12-18T01:51:20.434Z,17.52
2018-12-18T01:53:48.675Z,14.43
2018-12-18T01:56:16.858Z,12.50
2018-12-18T01:58:45.078Z,12.50
2018-12-18T02:01:13.257Z,11.70
2018-12-18T02:03:41.530Z,15.23
2018-12-18T02:06:09.879Z,15.48
2018-12-18T02:08:38.124Z,12.53
2018-12-18T02:11:06.394Z,13.40
2018-12-18T02:13:34.638Z,14.47
2018-12-18T02:16:02.899Z,14.75
2018-12-18T02:18:31.065Z,15.13
2018-12-18T02:20:59.393Z,14.70
2018-12-18T02:23:27.525Z,15.25
2018-12-18T02:25:55.697Z,12.73
2018-12-18T02:28:23.942Z,15.00
2018-12-18T02:30:52.137Z,12.85
2018-12-18T02:33:20.363Z,12.85
2018-12-18T02:35:48.615Z,14.38
2018-12-18T02:38:16.833Z,16.25
2018-12-18T02:40:45.071Z,16.30
2018-12-18T02:43:13.314Z,16.07
2018-12-18T02:45:41.496Z,14.55
2018-12-18T02:48:09.662Z,14.60
2018-12-18T02:50:37.918Z,17.75
2018-12-18T02:53:06.083Z,18.48
2018-12-18T02:55:34.349Z,18.07
2018-12-18T02:58:02.544Z,16.75
2018-12-18T03:00:30.974Z,19.48
2018-12-18T03:02:59.156Z,16.25
2018-12-18T03:05:27.314Z,17.75
2018-12-18T03:07:55.513Z,15.72
2018-12-18T03:10:23.732Z,16.95
2018-12-18T03:12:51.999Z,13.03
2018-12-18T03:15:20.333Z,19.37
2018-12-18T03:17:48.705Z,17.60
2018-12-18T03:20:16.987Z,12.37
2018-12-18T03:22:45.270Z,18.07
2018-12-18T03:25:13.586Z,13.45
2018-12-18T03:27:41.759Z,15.30
2018-12-18T03:30:10.214Z,16.87
2018-12-18T03:32:42.872Z,18.15
2018-12-18T03:35:11.206Z,11.85
2018-12-18T03:37:39.383Z,18.23
2018-12-18T03:40:07.713Z,15.00
2018-12-18T03:42:35.894Z,16.85
2018-12-18T03:45:04.417Z,17.40
2018-12-18T03:47:32.677Z,18.35
2018-12-18T03:50:00.910Z,18.32
2018-12-18T03:52:29.064Z,18.00
2018-12-18T03:54:57.365Z,18.10
2018-12-18T03:57:25.550Z,17.25
2018-12-18T03:59:53.726Z,17.80
2018-12-18T04:02:21.999Z,15.23
2018-12-18T04:04:50.242Z,17.05
2018-12-18T04:07:18.522Z,18.45
2018-12-18T04:09:46.702Z,15.53
2018-12-18T04:12:20.467Z,20.82
2018-12-18T04:14:48.799Z,20.40
2018-12-18T04:17:16.951Z,19.20
2018-12-18T04:19:45.180Z,15.80
2018-12-18T04:22:13.469Z,19.10
2018-12-18T04:24:41.718Z,19.17
2018-12-18T04:27:09.928Z,19.60
2018-12-18T04:32:28.801Z,19.25
2018-12-18T04:34:57.090Z,20.43
2018-12-18T04:37:25.401Z,19.55
2018-12-18T04:39:53.766Z,19.95
2018-12-18T04:42:22.154Z,19.40
2018-12-18T04:44:50.411Z,17.98
2018-12-18T04:47:18.653Z,20.85
2018-12-18T04:49:46.934Z,21.55
2018-12-18T04:52:21.867Z,18.67
2018-12-18T04:54:50.153Z,18.42
2018-12-18T04:57:18.464Z,20.12
2018-12-18T04:59:46.788Z,19.32
2018-12-18T05:02:15.039Z,19.45
2018-12-18T05:04:50.016Z,21.87
2018-12-18T05:07:13.626Z,20.00
2018-12-18T05:09:41.899Z,20.35
2018-12-18T05:12:10.214Z,22.77
2018-12-18T05:14:38.579Z,22.62
2018-12-18T05:17:06.873Z,15.72
2018-12-18T05:19:35.119Z,22.90
2018-12-18T05:22:03.494Z,21.07
2018-12-18T05:24:31.808Z,25.62
2018-12-18T05:27:00.050Z,23.22
2018-12-18T05:29:28.359Z,23.75
2018-12-18T05:31:56.625Z,20.12
2018-12-18T05:34:24.936Z,21.42
2018-12-18T05:36:53.188Z,22.73
2018-12-18T05:39:21.425Z,22.45
2018-12-18T05:41:49.763Z,19.90
2018-12-18T05:44:18.012Z,21.07
2018-12-18T05:46:46.292Z,19.05
2018-12-18T05:49:14.566Z,20.32
2018-12-18T05:51:42.858Z,17.05
2018-12-18T05:54:11.242Z,19.20
2018-12-18T05:56:39.507Z,17.85
2018-12-18T05:59:07.870Z,19.27
2018-12-18T06:01:36.244Z,18.48
2018-12-18T06:04:04.663Z,17.77
2018-12-18T06:06:32.901Z,18.67
2018-12-18T06:09:01.166Z,17.60
2018-12-18T06:11:29.484Z,18.80
2018-12-18T06:13:57.909Z,18.75
2018-12-18T06:16:26.266Z,19.32
2018-12-18T06:18:54.604Z,20.68
2018-12-18T06:21:22.905Z,20.68
2018-12-18T06:23:51.219Z,21.75
2018-12-18T06:26:19.659Z,18.00
2018-12-18T06:28:47.884Z,18.55
2018-12-18T06:31:16.240Z,20.75
2018-12-18T06:33:44.500Z,19.60
2018-12-18T06:36:12.858Z,17.75
2018-12-18T06:38:41.196Z,21.15
2018-12-18T06:41:09.515Z,19.25
2018-12-18T06:43:37.833Z,21.20
2018-12-18T06:46:09.239Z,18.87
2018-12-18T06:48:37.502Z,24.60
2018-12-18T06:51:05.819Z,20.65
2018-12-18T06:53:34.062Z,20.10
2018-12-18T06:56:02.347Z,17.62
2018-12-18T06:58:31.527Z,17.02
2018-12-18T07:00:59.787Z,17.50
2018-12-18T07:03:28.086Z,20.08
2018-12-18T07:05:56.484Z,19.77
2018-12-18T07:08:24.752Z,16.90
2018-12-18T07:10:53.009Z,15.78
2018-12-18T07:13:21.356Z,14.75
2018-12-18T07:15:49.654Z,13.50
2018-12-18T07:18:17.925Z,15.28
2018-12-18T07:20:46.213Z,15.08
2018-12-18T07:23:14.510Z,13.83
2018-12-18T07:25:42.767Z,14.33
2018-12-18T07:28:11.023Z,14.65
2018-12-18T07:30:39.374Z,14.43
2018-12-18T07:33:07.670Z,15.30
2018-12-18T07:35:36.221Z,15.95
2018-12-18T07:38:04.549Z,18.02
2018-12-18T07:40:32.876Z,17.12
2018-12-18T07:43:01.149Z,15.80
2018-12-18T07:45:29.451Z,15.43
2018-12-18T07:47:57.728Z,14.40
2018-12-18T07:50:25.982Z,15.68
2018-12-18T07:52:54.334Z,15.75
2018-12-18T07:55:22.570Z,14.55
2018-12-18T07:57:50.835Z,14.60
2018-12-18T08:00:19.256Z,13.03
2018-12-18T08:02:47.499Z,15.00
2018-12-18T08:05:15.909Z,13.20
2018-12-18T08:07:44.327Z,15.00
2018-12-18T08:10:12.721Z,14.68
2018-12-18T08:12:41.018Z,16.10
2018-12-18T08:15:09.381Z,14.65
2018-12-18T08:17:37.875Z,15.10
2018-12-18T08:20:06.432Z,16.00
2018-12-18T08:22:34.777Z,13.62
2018-12-18T08:25:03.116Z,12.47
2018-12-18T08:27:31.486Z,15.48
2018-12-18T08:29:59.767Z,12.35
2018-12-18T08:32:28.075Z,13.15
2018-12-18T08:34:56.721Z,10.48
2018-12-18T08:37:25.162Z,12.35
2018-12-18T08:39:53.458Z,11.45
2018-12-18T08:42:21.938Z,12.45
2018-12-18T08:44:50.265Z,12.25
2018-12-18T08:47:18.718Z,12.45
2018-12-18T08:49:46.980Z,13.18
2018-12-18T08:53:18.246Z,14.00
2018-12-18T08:55:46.500Z,12.47
2018-12-18T08:58:14.794Z,13.58
2018-12-18T09:00:43.300Z,12.95
2018-12-18T09:03:11.609Z,11.73
2018-12-18T09:05:43.199Z,13.45
2018-12-18T09:08:10.474Z,13.05
2018-12-18T09:10:39.972Z,13.85
2018-12-18T09:13:08.416Z,14.73
2018-12-18T09:15:42.082Z,13.70
2018-12-18T09:18:10.417Z,12.10
2018-12-18T09:20:39.515Z,12.47
2018-12-18T09:23:07.991Z,12.05
2018-12-18T09:25:36.255Z,13.03
2018-12-18T09:28:04.574Z,12.40
2018-12-18T09:30:33.466Z,12.43
2018-12-18T09:33:01.763Z,12.20
2018-12-18T09:35:30.059Z,11.55
2018-12-18T09:38:03.852Z,11.83
2018-12-18T09:40:36.438Z,10.82
2018-12-18T09:43:10.037Z,12.47
2018-12-18T09:45:38.323Z,11.25
2018-12-18T09:48:06.606Z,10.18
2018-12-18T09:50:35.663Z,11.20
2018-12-18T09:53:03.995Z,9.60
2018-12-18T09:55:32.311Z,8.53
2018-12-18T09:58:00.728Z,7.78
2018-12-18T10:00:29.067Z,10.93
2018-12-18T10:02:57.315Z,7.83
2018-12-18T10:05:25.630Z,9.00
2018-12-18T10:07:53.942Z,8.90
2018-12-18T10:10:22.379Z,9.40
2018-12-18T10:12:56.463Z,7.87
2018-12-18T10:15:25.560Z,8.33
2018-12-18T10:17:53.920Z,8.23
2018-12-18T10:20:22.487Z,7.17
2018-12-18T10:22:50.813Z,7.90
2018-12-18T10:25:19.174Z,8.20
2018-12-18T10:27:47.436Z,7.20
2018-12-18T10:30:15.899Z,7.23
2018-12-18T10:32:44.226Z,7.60
2018-12-18T10:35:12.605Z,7.73
2018-12-18T10:37:42.602Z,6.80
2018-12-18T10:40:11.390Z,5.60
2018-12-18T10:42:39.852Z,6.47
2018-12-18T10:45:13.856Z,6.30
2018-12-18T10:47:42.233Z,5.30
2018-12-18T10:50:10.500Z,6.47
2018-12-18T10:52:38.784Z,4.47
2018-12-18T10:55:07.554Z,5.90
2018-12-18T10:57:35.947Z,5.33
2018-12-18T11:00:08.675Z,5.03
2018-12-18T11:02:37.069Z,6.27
2018-12-18T11:05:05.893Z,6.27
2018-12-18T11:07:34.313Z,7.40
2018-12-18T11:10:02.782Z,7.27
2018-12-18T11:12:36.971Z,7.20
2018-12-18T11:15:06.365Z,8.10
2018-12-18T11:17:34.672Z,6.77
2018-12-18T11:20:03.441Z,6.27
2018-12-18T11:22:31.771Z,6.87
2018-12-18T11:25:00.084Z,6.30
2018-12-18T11:27:28.367Z,5.53
2018-12-18T11:29:56.721Z,6.10
2018-12-18T11:32:25.011Z,5.27
2018-12-18T11:34:53.358Z,4.93
2018-12-18T11:37:21.733Z,6.30
2018-12-18T11:39:50.079Z,5.90
2018-12-18T11:42:18.389Z,5.93
2018-12-18T11:44:46.708Z,6.03
2018-12-18T11:47:15.015Z,6.40
2018-12-18T11:49:43.514Z,5.40
2018-12-18T11:52:11.881Z,5.13
2018-12-18T11:54:40.202Z,5.73
2018-12-18T11:57:08.532Z,6.27
2018-12-18T11:59:36.885Z,5.73
2018-12-18T12:02:05.334Z,4.90
2018-12-18T12:04:33.563Z,5.80
2018-12-18T12:07:01.872Z,5.27
2018-12-18T12:09:30.610Z,4.97
2018-12-18T12:11:58.970Z,4.20
2018-12-18T12:14:27.238Z,5.03
2018-12-18T12:16:55.567Z,4.37
2018-12-18T12:19:23.853Z,4.50
2018-12-18T12:21:52.138Z,4.50
2018-12-18T12:24:20.493Z,3.67
2018-12-18T12:26:48.802Z,3.60
2018-12-18T12:29:17.420Z,3.87
2018-12-18T12:31:45.775Z,4.87
2018-12-18T12:34:14.078Z,4.00
2018-12-18T12:36:42.470Z,3.60
2018-12-18T12:39:10.800Z,3.77
2018-12-18T12:41:39.042Z,4.97
2018-12-18T12:44:07.295Z,2.73
2018-12-18T12:46:35.572Z,4.17
2018-12-18T12:49:10.988Z,2.80
2018-12-18T12:51:39.463Z,3.12
2018-12-18T12:54:07.782Z,3.40
2018-12-18T12:56:36.176Z,3.75
2018-12-18T12:59:04.670Z,3.60
2018-12-18T13:01:33.863Z,3.47
2018-12-18T13:04:02.237Z,4.47
2018-12-18T13:06:36.206Z,3.30
2018-12-18T13:09:00.983Z,4.20
2018-12-18T13:11:29.913Z,3.60
2018-12-18T13:13:58.247Z,3.57
2018-12-18T13:16:26.493Z,3.50
2018-12-18T13:18:54.862Z,3.87
2018-12-18T13:21:23.202Z,5.40
2018-12-18T13:23:51.480Z,4.60
2018-12-18T13:26:19.734Z,3.67
2018-12-18T13:28:48.194Z,4.23
2018-12-18T13:31:16.505Z,6.15
2018-12-18T13:33:44.797Z,4.03
2018-12-18T13:36:13.021Z,4.53
2018-12-18T13:38:41.367Z,4.60
2018-12-18T13:41:09.846Z,4.53
2018-12-18T13:43:38.177Z,3.97
2018-12-18T13:46:06.545Z,5.07
2018-12-18T13:48:34.913Z,4.23
2018-12-18T13:51:03.425Z,3.73
2018-12-18T13:53:31.847Z,3.10
2018-12-18T13:56:00.202Z,3.35
2018-12-18T13:58:28.566Z,3.67
2018-12-18T14:00:56.880Z,3.50
2018-12-18T14:03:25.137Z,3.67
2018-12-18T14:05:53.494Z,3.73
2018-12-18T14:08:21.793Z,4.03
2018-12-18T14:10:50.234Z,3.40
2018-12-18T14:13:18.491Z,3.57
2018-12-18T14:15:46.757Z,2.83
2018-12-18T14:18:15.016Z,2.80
2018-12-18T14:20:43.282Z,3.57
2018-12-18T14:23:11.553Z,3.35
2018-12-18T14:25:39.824Z,3.70
2018-12-18T14:28:08.133Z,3.42
2018-12-18T14:30:36.378Z,2.80
2018-12-18T14:33:04.706Z,4.00
2018-12-18T14:35:33.035Z,3.60
2018-12-18T14:38:01.290Z,3.30
2018-12-18T14:40:29.618Z,4.70
2018-12-18T14:42:57.991Z,3.10
2018-12-18T14:45:26.351Z,4.03
2018-12-18T14:47:54.643Z,3.87
2018-12-18T14:50:23.589Z,3.08
2018-12-18T14:52:51.854Z,4.00
2018-12-18T14:55:20.133Z,3.80
2018-12-18T14:57:48.391Z,3.37
2018-12-18T15:00:16.665Z,3.47
2018-12-18T15:02:44.916Z,4.08
2018-12-18T15:05:13.173Z,3.05
2018-12-18T15:07:41.495Z,3.10
2018-12-18T15:10:09.879Z,2.90
2018-12-18T15:12:42.443Z,3.67
2018-12-18T15:15:10.700Z,3.87
2018-12-18T15:17:38.971Z,4.25
2018-12-18T15:20:09.012Z,4.53
2018-12-18T15:22:37.284Z,3.30
2018-12-18T15:25:06.125Z,3.90
2018-12-18T15:27:34.366Z,4.10
2018-12-18T15:30:02.745Z,3.50
2018-12-18T15:32:31.171Z,4.60
2018-12-18T15:34:59.447Z,4.00
2018-12-18T15:37:27.660Z,3.60
2018-12-18T15:39:55.972Z,4.67
2018-12-18T15:42:24.219Z,4.22
2018-12-18T15:44:52.468Z,4.15
2018-12-18T15:47:20.704Z,3.42
2018-12-18T15:49:48.929Z,3.77
2018-12-18T15:53:47.432Z,4.97
2018-12-18T15:56:15.748Z,3.80
2018-12-18T15:58:44.024Z,4.62
2018-12-18T16:01:12.387Z,3.95
2018-12-18T16:03:40.678Z,4.45
2018-12-18T16:06:08.955Z,4.15
2018-12-18T16:08:37.253Z,5.53
2018-12-18T16:11:05.507Z,4.00
2018-12-18T16:13:33.768Z,4.05
2018-12-18T16:16:02.613Z,4.30
2018-12-18T16:18:30.938Z,4.28
2018-12-18T16:20:59.212Z,5.62
2018-12-18T16:23:27.451Z,4.40
2018-12-18T16:25:55.747Z,6.22
2018-12-18T16:28:24.142Z,4.62
2018-12-18T16:30:52.493Z,4.97
2018-12-18T16:33:20.864Z,4.28
2018-12-18T16:35:49.131Z,4.87
2018-12-18T16:38:17.428Z,4.70
2018-12-18T16:40:45.691Z,5.25
2018-12-18T16:43:13.999Z,5.50
2018-12-18T16:45:42.215Z,5.42
2018-12-18T16:48:10.495Z,5.45
2018-12-18T16:50:38.822Z,4.62
2018-12-18T16:53:07.117Z,4.85
2018-12-18T16:55:35.422Z,4.70
2018-12-18T16:58:03.855Z,5.08
2018-12-18T17:00:32.091Z,4.72
2018-12-18T17:03:00.382Z,4.25
2018-12-18T17:05:28.643Z,4.90
2018-12-18T17:07:56.952Z,5.08
2018-12-18T17:10:25.816Z,4.53
2018-12-18T17:12:57.038Z,5.42
2018-12-18T17:15:25.675Z,5.50
2018-12-18T17:17:53.915Z,4.87
2018-12-18T17:20:22.136Z,5.78
2018-12-18T17:22:50.379Z,4.30
2018-12-18T17:25:18.641Z,5.70
2018-12-18T17:27:46.926Z,6.67
2018-12-18T17:30:15.173Z,4.72
2018-12-18T17:32:43.441Z,5.40
2018-12-18T17:35:11.873Z,5.25
2018-12-18T17:37:40.110Z,6.05
2018-12-18T17:40:09.091Z,5.35
2018-12-18T17:42:37.332Z,5.00
2018-12-18T17:45:07.077Z,6.30
2018-12-18T17:47:35.694Z,4.80
2018-12-18T17:50:04.743Z,6.22
2018-12-18T17:52:33.192Z,5.50
2018-12-18T17:55:01.479Z,6.75
2018-12-18T17:57:29.754Z,6.35
2018-12-18T17:59:58.058Z,5.00
2018-12-18T18:02:26.304Z,5.47
2018-12-18T18:04:54.583Z,5.95
2018-12-18T18:07:22.822Z,4.72
2018-12-18T18:09:51.079Z,5.50
2018-12-18T18:12:19.298Z,5.65
2018-12-18T18:14:47.590Z,4.90
2018-12-18T18:17:15.835Z,5.47
2018-12-18T18:19:44.089Z,6.20
2018-12-18T18:22:12.679Z,4.50
2018-12-18T18:24:41.108Z,6.25
2018-12-18T18:27:09.413Z,6.17
2018-12-18T18:29:37.676Z,6.25
2018-12-18T18:32:06.015Z,4.12
2018-12-18T18:34:34.399Z,5.67
2018-12-18T18:37:02.638Z,6.03
2018-12-18T18:39:30.879Z,6.00
2018-12-18T18:41:59.123Z,5.55
2018-12-18T18:44:27.340Z,4.80
2018-12-18T18:46:55.634Z,5.58
2018-12-18T18:49:23.911Z,4.97
2018-12-18T18:51:52.203Z,6.35
2018-12-18T18:54:20.420Z,5.55
2018-12-18T18:56:48.702Z,6.03
2018-12-18T18:59:17.005Z,6.72
2018-12-18T19:01:45.308Z,5.78
2018-12-18T19:04:13.550Z,5.33
2018-12-18T19:06:41.838Z,6.05
2018-12-18T19:09:10.080Z,3.95
2018-12-18T19:11:38.403Z,5.92
2018-12-18T19:14:06.704Z,6.03
2018-12-18T19:16:34.962Z,5.10
2018-12-18T19:19:03.197Z,4.75
2018-12-18T19:21:31.841Z,5.10
2018-12-18T19:24:00.132Z,5.37
2018-12-18T19:26:29.690Z,5.60
2018-12-18T19:28:57.946Z,5.65
2018-12-18T19:31:26.192Z,5.55
2018-12-18T19:33:54.524Z,5.75
2018-12-18T19:36:22.975Z,5.65
2018-12-18T19:38:51.171Z,4.65
2018-12-18T19:41:19.455Z,5.30
2018-12-18T19:43:47.726Z,7.12
2018-12-18T19:46:15.995Z,6.55
2018-12-18T19:48:44.429Z,4.90
2018-12-18T19:51:12.728Z,6.08
2018-12-18T19:53:41.019Z,4.72
2018-12-18T19:56:09.291Z,5.28
2018-12-18T19:58:37.566Z,6.00
2018-12-18T20:01:05.914Z,5.33
2018-12-18T20:03:34.326Z,6.58
2018-12-18T20:06:02.545Z,6.30
2018-12-18T20:08:30.813Z,7.10
2018-12-18T20:10:59.063Z,6.42
2018-12-18T20:13:27.352Z,4.42
2018-12-18T20:15:55.619Z,5.80
2018-12-18T20:18:23.864Z,7.53
2018-12-18T20:20:52.105Z,6.75
2018-12-18T20:23:20.443Z,6.60
2018-12-18T20:25:48.834Z,6.08
2018-12-18T20:28:17.133Z,6.35
2018-12-18T20:30:45.373Z,6.50
2018-12-18T20:33:14.297Z,7.97
2018-12-18T20:35:42.539Z,8.03
2018-12-18T20:38:16.646Z,7.47
2018-12-18T20:40:41.148Z,5.67
2018-12-18T20:43:09.415Z,7.20
2018-12-18T20:45:37.662Z,7.33
2018-12-18T20:48:05.911Z,8.93
2018-12-18T20:50:34.378Z,7.28
2018-12-18T20:53:02.831Z,6.35
2018-12-18T20:55:31.067Z,8.93
2018-12-18T20:57:59.302Z,8.15
2018-12-18T21:00:27.656Z,9.70
2018-12-18T21:02:56.418Z,9.70
2018-12-18T21:05:24.843Z,10.65
2018-12-18T21:07:53.397Z,9.50
2018-12-18T21:10:21.672Z,8.45
2018-12-18T21:12:49.994Z,11.97
2018-12-18T21:15:18.321Z,10.25
2018-12-18T21:17:46.627Z,11.73
2018-12-18T21:20:14.893Z,11.45
2018-12-18T21:22:43.265Z,11.22
2018-12-18T21:25:11.494Z,11.57
2018-12-18T21:27:39.857Z,13.32
2018-12-18T21:30:09.055Z,13.40
2018-12-18T21:32:37.385Z,13.72
2018-12-18T21:35:05.951Z,12.10
2018-12-18T21:37:34.333Z,11.50
2018-12-18T21:40:02.803Z,12.40
2018-12-18T21:42:31.218Z,10.50
2018-12-18T21:45:00.093Z,12.58
2018-12-18T21:47:28.432Z,14.90
2018-12-18T21:49:56.769Z,13.72
2018-12-18T21:52:25.063Z,13.20
2018-12-18T21:54:53.300Z,13.80
2018-12-18T21:57:21.506Z,10.15
2018-12-18T21:59:49.770Z,14.15
2018-12-18T22:02:18.062Z,14.20
2018-12-18T22:04:46.296Z,13.85
2018-12-18T22:07:14.574Z,12.95
2018-12-18T22:09:42.811Z,15.30
2018-12-18T22:12:11.138Z,7.50
2018-12-18T22:14:39.410Z,12.65
2018-12-18T22:17:07.631Z,11.60
2018-12-18T22:19:35.853Z,10.48
2018-12-18T22:22:04.309Z,14.10
2018-12-18T22:24:32.602Z,11.70
2018-12-18T22:27:00.978Z,13.75
2018-12-18T22:29:29.375Z,14.60
2018-12-18T22:31:57.675Z,13.83
2018-12-18T22:34:25.903Z,12.93
2018-12-18T22:36:54.203Z,15.38
2018-12-18T22:39:22.511Z,13.05
2018-12-18T22:41:50.843Z,11.90
2018-12-18T22:44:19.077Z,12.73
2018-12-18T22:46:47.361Z,16.00
2018-12-18T22:49:15.740Z,14.05
2018-12-18T22:51:44.053Z,13.98
2018-12-18T22:54:12.303Z,11.83
2018-12-18T22:56:40.610Z,14.25
2018-12-18T22:59:08.900Z,13.50
2018-12-18T23:01:41.437Z,13.05
2018-12-18T23:04:09.702Z,13.15
2018-12-18T23:06:38.049Z,12.00
2018-12-18T23:09:09.590Z,14.18
2018-12-18T23:11:37.950Z,12.33
2018-12-18T23:14:06.293Z,12.65
2018-12-18T23:16:34.542Z,13.43
2018-12-18T23:19:02.936Z,14.38
2018-12-18T23:21:32.151Z,15.18
2018-12-18T23:24:00.446Z,13.38
2018-12-18T23:26:28.907Z,14.85
2018-12-18T23:28:57.235Z,11.20
2018-12-18T23:31:25.526Z,15.65
2018-12-18T23:33:53.786Z,13.32
2018-12-18T23:36:22.004Z,14.33
2018-12-18T23:38:56.626Z,14.53
2018-12-18T23:41:20.535Z,15.65
2018-12-18T23:43:48.760Z,13.93
2018-12-18T23:46:17.018Z,13.15
2018-12-18T23:48:45.263Z,13.10
2018-12-18T23:51:13.535Z,12.03
2018-12-18T23:53:41.832Z,14.25
2018-12-18T23:56:10.143Z,15.30
2018-12-18T23:58:38.505Z,14.45
